Bookmark and Share
Track history (hours):
 

Vivien A

Last reported at 2014-Apr-13 14:33 UTC. Time now 2014-Apr-18 16:17 UTC.
Position N 07°50' W 015°14'.

Length 210 m; draft 11.1 m.

Type: Ship (hazmat cat A). MMSI: 271040635.

NotesDate/timePositionNaut miles runAvg speedWind from/ knotsBaromVisibWave heightAir tempDewpointWater temp
2014-Apr-13 14:33N 07°50' W 015°14'1110.9
2014-Apr-13 13:33N 07°59' W 015°21'1110.6
2014-Apr-13 12:33N 08°07' W 015°28'1010.4
2014-Apr-13 11:33N 08°15' W 015°34'1010.4
2014-Apr-13 10:33N 08°24' W 015°40'1110.8
2014-Apr-13 09:33N 08°32' W 015°47'1310.6
2014-Apr-13 08:19N 08°43' W 015°55'4010.5
2014-Apr-13 04:33N 09°14' W 016°20'2110.5
2014-Apr-13 02:33N 09°31' W 016°33'12411.0
2014-Apr-12 15:18N 11°09' W 017°50'811.4
2014-Apr-12 14:33N 11°16' W 017°55'2211.0
2014-Apr-12 12:33N 11°37' W 018°00'9211.3
2014-Apr-12 04:27N 13°09' W 017°59'1311.0
2014-Apr-12 03:15N 13°22' W 017°60'911.4
2014-Apr-12 02:26N 13°31' W 018°00'  
2014-Apr-06 16:27N 34°24' W 007°59'14410.3
2014-Apr-06 02:28N 35°57' W 005°44'1110.4
2014-Apr-06 01:25N 35°58' W 005°31'8 9.6
2014-Apr-06 00:33N 36°04' W 005°23'6 5.4
2014-Apr-05 23:31N 36°09' W 005°26'0 0.0
2014-Apr-05 19:25N 36°09' W 005°26'0 0.0
2014-Apr-05 18:28N 36°09' W 005°26'0 0.0
2014-Apr-05 17:31N 36°09' W 005°26'0 0.0
2014-Apr-05 16:25N 36°09' W 005°26'0 0.0
2014-Apr-05 15:28N 36°09' W 005°26'0 0.0
2014-Apr-05 14:04N 36°09' W 005°26'0 0.0
2014-Apr-05 12:31N 36°09' W 005°26'0 0.0
2014-Apr-05 11:31N 36°09' W 005°26'0 0.0
2014-Apr-05 10:31N 36°09' W 005°26'0 0.0
2014-Apr-05 09:31N 36°09' W 005°26'0 0.0
2014-Apr-05 08:25N 36°09' W 005°26'0 0.0
2014-Apr-05 07:19N 36°09' W 005°26'0 0.0
2014-Apr-05 03:07N 36°09' W 005°26'0 0.0
2014-Apr-05 02:13N 36°09' W 005°26'0 0.0
2014-Apr-05 01:31N 36°09' W 005°26'0 0.0
2014-Apr-05 00:22N 36°09' W 005°26'0 0.1
2014-Apr-04 23:32N 36°09' W 005°26'6 6.3
2014-Apr-04 22:33N 36°05' W 005°21'4 4.0
2014-Apr-04 21:33N 36°05' W 005°16'10 9.5
2014-Apr-04 20:34N 35°59' W 005°24'7 0.3
2014-Apr-03 22:28N 35°53' W 005°30'1 0.1
2014-Apr-03 15:06N 35°54' W 005°29'  

Dump ship's entire track history

sailing weather and tide predictions

Vivien A — TCYC4 — position and weather